createdAt,value
2023-02-08T00:02:04.914Z,10.20
2023-02-08T00:04:33.269Z,9.80
2023-02-08T00:07:03.016Z,10.00
2023-02-08T00:09:34.427Z,9.27
2023-02-08T00:12:03.048Z,9.50
2023-02-08T00:14:33.252Z,9.33
2023-02-08T00:17:06.480Z,9.30
2023-02-08T00:19:35.071Z,9.27
2023-02-08T00:22:07.081Z,9.23
2023-02-08T00:24:36.350Z,9.33
2023-02-08T00:27:04.671Z,9.73
2023-02-08T00:29:34.371Z,9.40
2023-02-08T00:32:02.702Z,9.40
2023-02-08T00:34:31.549Z,10.20
2023-02-08T00:37:00.099Z,9.00
2023-02-08T00:39:36.629Z,9.63
2023-02-08T00:42:05.124Z,8.97
2023-02-08T00:44:35.047Z,9.30
2023-02-08T00:47:04.080Z,8.40
2023-02-08T00:49:32.413Z,8.57
2023-02-08T00:52:00.830Z,9.23
2023-02-08T00:54:32.416Z,7.90
2023-02-08T00:57:01.127Z,8.97
2023-02-08T00:59:29.476Z,7.90
2023-02-08T01:01:57.854Z,8.47
2023-02-08T01:04:49.023Z,8.40
2023-02-08T01:07:46.807Z,9.07
2023-02-08T01:11:09.624Z,8.80
2023-02-08T01:13:56.474Z,8.13
2023-02-08T01:16:38.480Z,8.50
2023-02-08T01:19:21.488Z,7.97
2023-02-08T01:22:18.542Z,8.30
2023-02-08T01:25:09.350Z,8.20
2023-02-08T01:27:55.259Z,8.27
2023-02-08T01:30:37.407Z,8.27
2023-02-08T01:33:51.101Z,7.97
2023-02-08T01:36:44.607Z,8.73
2023-02-08T01:39:38.480Z,8.80
2023-02-08T01:45:46.648Z,7.83
2023-02-08T01:48:53.994Z,8.37
2023-02-08T01:51:29.396Z,8.00
2023-02-08T01:54:02.921Z,8.03
2023-02-08T01:56:42.577Z,8.90
2023-02-08T01:59:15.802Z,8.13
2023-02-08T02:01:49.061Z,8.03
2023-02-08T02:04:17.942Z,8.43
2023-02-08T02:07:11.193Z,8.57
2023-02-08T02:09:47.211Z,7.87
2023-02-08T02:12:16.128Z,7.37
2023-02-08T02:14:46.274Z,7.83
2023-02-08T02:17:24.648Z,7.43
2023-02-08T02:20:06.824Z,7.83
2023-02-08T02:23:11.442Z,7.33
2023-02-08T02:26:05.737Z,7.33
2023-02-08T02:29:10.759Z,7.47
2023-02-08T02:31:59.145Z,7.47
2023-02-08T02:34:49.025Z,8.07
2023-02-08T02:37:31.102Z,7.70
2023-02-08T02:40:11.850Z,7.47
2023-02-08T02:43:17.550Z,7.80
2023-02-08T02:45:54.088Z,7.27
2023-02-08T02:48:31.068Z,7.80
2023-02-08T02:51:04.647Z,7.30
2023-02-08T02:53:41.111Z,7.10
2023-02-08T02:56:17.561Z,7.03
2023-02-08T02:58:46.480Z,8.13
2023-02-08T03:01:15.201Z,6.93
2023-02-08T03:03:45.169Z,7.47
2023-02-08T03:06:20.992Z,7.43
2023-02-08T03:09:11.997Z,7.23
2023-02-08T03:11:46.856Z,7.50
2023-02-08T03:14:28.638Z,6.90
2023-02-08T03:17:10.951Z,6.73
2023-02-08T03:19:48.459Z,6.60
2023-02-08T03:22:21.529Z,6.93
2023-02-08T03:24:57.170Z,6.50
2023-02-08T03:27:31.810Z,6.23
2023-02-08T03:30:04.847Z,6.93
2023-02-08T03:32:40.083Z,6.00
2023-02-08T03:35:15.610Z,6.43
2023-02-08T03:37:49.402Z,6.87
2023-02-08T03:40:22.520Z,5.93
2023-02-08T03:42:55.486Z,6.70
2023-02-08T03:45:28.910Z,6.63
2023-02-08T03:48:01.820Z,6.37
2023-02-08T03:50:35.981Z,6.80
2023-02-08T03:53:05.266Z,7.17
2023-02-08T03:55:37.002Z,6.60
2023-02-08T03:58:09.585Z,6.97
2023-02-08T04:00:42.524Z,7.10
2023-02-08T04:03:18.125Z,6.83
2023-02-08T04:05:49.195Z,6.37
2023-02-08T04:08:17.962Z,6.80
2023-02-08T04:10:47.503Z,7.53
2023-02-08T04:13:16.510Z,6.70
2023-02-08T04:15:45.435Z,6.93
2023-02-08T04:18:15.482Z,7.43
2023-02-08T04:20:45.085Z,7.20
2023-02-08T04:23:14.961Z,6.77
2023-02-08T04:25:43.855Z,7.40
2023-02-08T04:28:12.267Z,7.33
2023-02-08T04:30:40.771Z,7.27
2023-02-08T04:33:25.707Z,6.40
2023-02-08T04:36:06.114Z,7.07
2023-02-08T04:38:47.365Z,7.30
2023-02-08T04:41:39.652Z,6.50
2023-02-08T04:44:10.989Z,6.67
2023-02-08T04:46:39.794Z,6.13
2023-02-08T04:49:08.651Z,6.90
2023-02-08T04:51:48.656Z,6.40
2023-02-08T04:54:21.100Z,6.70
2023-02-08T04:56:54.946Z,6.80
2023-02-08T04:59:30.318Z,6.97
2023-02-08T05:02:05.053Z,6.57
2023-02-08T05:04:35.010Z,6.57
2023-02-08T05:07:05.500Z,7.57
2023-02-08T05:09:39.759Z,6.27
2023-02-08T05:12:09.571Z,7.47
2023-02-08T05:14:40.905Z,6.87
2023-02-08T05:17:11.326Z,6.33
2023-02-08T05:19:53.670Z,6.70
2023-02-08T05:22:22.170Z,6.70
2023-02-08T05:24:56.289Z,7.33
2023-02-08T05:27:26.272Z,6.70
2023-02-08T05:29:59.006Z,6.97
2023-02-08T05:32:30.142Z,6.60
2023-02-08T05:35:08.565Z,7.40
2023-02-08T05:37:37.225Z,7.10
2023-02-08T05:40:13.736Z,7.23
2023-02-08T05:42:42.594Z,7.90
2023-02-08T05:45:14.083Z,6.77
2023-02-08T05:47:54.863Z,7.03
2023-02-08T05:50:24.768Z,6.63
2023-02-08T05:53:01.123Z,6.83
2023-02-08T05:55:36.962Z,6.77
2023-02-08T05:58:09.485Z,7.50
2023-02-08T06:00:38.961Z,6.83
2023-02-08T06:03:12.773Z,6.77
2023-02-08T06:06:39.352Z,6.50
2023-02-08T06:09:08.598Z,7.07
2023-02-08T06:12:21.218Z,6.83
2023-02-08T06:15:17.056Z,6.83
2023-02-08T06:17:48.340Z,6.97
2023-02-08T06:20:17.826Z,6.50
2023-02-08T06:22:46.271Z,7.37
2023-02-08T06:25:14.993Z,7.07
2023-02-08T06:27:52.012Z,7.47
2023-02-08T06:30:22.741Z,7.33
2023-02-08T06:32:51.455Z,6.50
2023-02-08T06:35:20.253Z,7.67
2023-02-08T06:37:50.685Z,7.10
2023-02-08T06:40:19.074Z,6.90
2023-02-08T06:42:51.041Z,6.33
2023-02-08T06:45:21.102Z,6.73
2023-02-08T06:47:49.364Z,6.73
2023-02-08T06:50:18.133Z,6.43
2023-02-08T06:52:46.960Z,7.23
2023-02-08T06:55:15.773Z,7.17
2023-02-08T06:57:44.171Z,6.63
2023-02-08T07:00:16.173Z,7.57
2023-02-08T07:02:44.337Z,8.33
2023-02-08T07:05:13.175Z,7.40
2023-02-08T07:07:42.101Z,7.50
2023-02-08T07:10:11.554Z,7.87
2023-02-08T07:12:40.768Z,8.23
2023-02-08T07:15:10.320Z,7.10
2023-02-08T07:17:40.390Z,7.87
2023-02-08T07:20:11.509Z,7.07
2023-02-08T07:22:40.294Z,7.23
2023-02-08T07:25:10.263Z,7.20
2023-02-08T07:27:38.857Z,7.70
2023-02-08T07:30:08.342Z,7.37
2023-02-08T07:32:36.973Z,8.00
2023-02-08T07:35:07.099Z,7.37
2023-02-08T07:37:35.500Z,7.47
2023-02-08T07:40:03.944Z,7.03
2023-02-08T07:42:32.151Z,7.70
2023-02-08T07:45:01.695Z,6.90
2023-02-08T07:47:30.051Z,6.53
2023-02-08T07:50:41.963Z,7.23
2023-02-08T07:53:12.171Z,7.43
2023-02-08T07:55:42.571Z,6.57
2023-02-08T07:58:14.418Z,6.80
2023-02-08T08:00:50.444Z,7.50
2023-02-08T08:03:30.315Z,7.20
2023-02-08T08:06:19.785Z,7.47
2023-02-08T08:09:34.406Z,7.43
2023-02-08T08:12:04.388Z,7.67
2023-02-08T08:22:38.865Z,6.90
2023-02-08T08:25:51.848Z,8.13
2023-02-08T08:31:35.020Z,8.70
2023-02-08T08:34:04.134Z,8.53
2023-02-08T08:36:33.109Z,8.43
2023-02-08T08:39:04.471Z,8.30
2023-02-08T08:41:34.841Z,8.03
2023-02-08T08:44:11.795Z,8.80
2023-02-08T08:46:41.730Z,8.90
2023-02-08T08:49:10.322Z,8.80
2023-02-08T08:51:40.649Z,8.93
2023-02-08T08:54:11.811Z,8.87
2023-02-08T08:56:40.509Z,8.70
2023-02-08T08:59:09.073Z,9.03
2023-02-08T09:25:04.691Z,9.73
2023-02-08T09:27:48.973Z,9.80
2023-02-08T09:34:39.238Z,9.50
2023-02-08T09:59:00.744Z,11.87
2023-02-08T10:01:57.166Z,9.10
2023-02-08T10:04:34.773Z,9.50
2023-02-08T10:07:08.335Z,9.77
2023-02-08T10:09:44.685Z,9.43
2023-02-08T10:12:22.228Z,8.97
2023-02-08T10:15:15.976Z,8.50
2023-02-08T10:18:25.801Z,9.27
2023-02-08T10:21:20.979Z,9.70
2023-02-08T10:24:24.537Z,10.00
2023-02-08T10:27:13.628Z,9.73
2023-02-08T10:30:11.953Z,9.57
2023-02-08T10:33:03.093Z,9.20
2023-02-08T10:35:39.258Z,9.57
2023-02-08T10:38:44.139Z,9.67
2023-02-08T10:41:20.744Z,9.20
2023-02-08T10:44:25.837Z,10.07
2023-02-08T10:47:21.213Z,10.10
2023-02-08T10:50:08.088Z,9.93
2023-02-08T10:52:54.162Z,9.17
2023-02-08T10:55:30.421Z,10.10
2023-02-08T10:58:13.653Z,9.43
2023-02-08T11:00:48.417Z,10.00
2023-02-08T11:03:42.811Z,9.83
2023-02-08T11:06:27.758Z,10.60
2023-02-08T11:08:59.354Z,10.57
2023-02-08T11:11:34.146Z,13.00
2023-02-08T11:14:20.942Z,11.40
2023-02-08T11:17:00.838Z,9.50
2023-02-08T11:38:55.834Z,9.80
2023-02-08T11:42:14.684Z,9.83
2023-02-08T11:49:15.080Z,10.23
2023-02-08T11:56:34.843Z,10.57
2023-02-08T12:02:53.192Z,9.57
2023-02-08T12:05:33.100Z,9.47
2023-02-08T12:08:31.461Z,9.37
2023-02-08T12:11:21.248Z,9.77
2023-02-08T12:14:36.482Z,9.13
2023-02-08T12:17:34.373Z,9.97
2023-02-08T12:20:50.155Z,9.97
2023-02-08T12:24:19.488Z,9.03
2023-02-08T12:27:11.296Z,9.83
2023-02-08T12:29:54.516Z,10.17
2023-02-08T12:32:46.979Z,10.10
2023-02-08T12:36:04.259Z,9.17
2023-02-08T12:39:17.844Z,9.43
2023-02-08T12:42:25.311Z,10.13
2023-02-08T12:45:17.493Z,9.23
2023-02-08T12:48:04.681Z,9.37
2023-02-08T12:50:42.088Z,9.60
2023-02-08T12:53:20.321Z,9.90
2023-02-08T12:55:51.603Z,9.97
2023-02-08T12:58:28.421Z,9.83
2023-02-08T13:01:04.251Z,9.10
2023-02-08T13:03:53.608Z,10.17
2023-02-08T13:06:31.671Z,9.73
2023-02-08T13:09:04.869Z,10.00
2023-02-08T13:11:46.465Z,9.67
2023-02-08T13:14:33.154Z,9.80
2023-02-08T13:17:10.734Z,10.23
2023-02-08T13:19:59.676Z,9.40
2023-02-08T13:22:31.795Z,8.77
2023-02-08T13:25:08.542Z,9.33
2023-02-08T13:27:41.596Z,9.00
2023-02-08T13:30:19.868Z,9.00
2023-02-08T13:32:56.847Z,9.03
2023-02-08T13:35:39.097Z,8.63
2023-02-08T13:38:38.191Z,8.77
2023-02-08T13:41:27.979Z,8.50
2023-02-08T13:44:25.553Z,9.10
2023-02-08T13:47:19.000Z,8.30
2023-02-08T13:50:12.555Z,8.90
2023-02-08T13:53:05.070Z,9.63
2023-02-08T13:56:08.830Z,9.30
2023-02-08T13:59:06.238Z,9.00
2023-02-08T14:02:17.849Z,8.30
2023-02-08T14:04:49.189Z,7.80
2023-02-08T14:07:32.376Z,9.07
2023-02-08T14:10:32.178Z,8.17
2023-02-08T14:13:09.324Z,8.20
2023-02-08T14:15:43.703Z,8.90
2023-02-08T14:18:29.315Z,8.87
2023-02-08T14:21:08.273Z,7.90
2023-02-08T14:23:41.584Z,8.20
2023-02-08T14:26:20.722Z,7.97
2023-02-08T14:28:59.787Z,8.40
2023-02-08T14:31:45.112Z,7.20
2023-02-08T14:34:34.589Z,8.07
2023-02-08T14:41:04.541Z,8.17
2023-02-08T14:43:36.718Z,8.33
2023-02-08T14:46:47.493Z,7.10
2023-02-08T14:49:54.514Z,8.10
2023-02-08T14:52:35.490Z,7.70
2023-02-08T14:55:33.023Z,7.63
2023-02-08T14:58:05.492Z,8.20
2023-02-08T15:00:37.963Z,8.03
2023-02-08T15:03:08.455Z,7.83
2023-02-08T15:05:47.819Z,7.93
2023-02-08T15:08:22.963Z,7.53
2023-02-08T15:10:51.532Z,7.33
2023-02-08T15:13:24.731Z,6.73
2023-02-08T15:15:55.535Z,6.93
2023-02-08T15:18:33.274Z,6.77
2023-02-08T15:21:05.719Z,6.77
2023-02-08T15:23:43.929Z,6.07
2023-02-08T15:26:37.913Z,6.67
2023-02-08T15:29:43.834Z,6.93
2023-02-08T15:32:16.978Z,8.93
2023-02-08T15:34:50.646Z,7.90
2023-02-08T15:37:22.328Z,8.97
2023-02-08T15:39:53.201Z,7.53
2023-02-08T15:42:24.130Z,7.10
2023-02-08T15:44:54.448Z,7.07
2023-02-08T15:47:29.394Z,7.13
2023-02-08T15:49:58.899Z,7.03
2023-02-08T15:52:33.333Z,7.83
2023-02-08T15:55:01.883Z,7.93
2023-02-08T15:57:37.395Z,7.50
2023-02-08T16:00:14.305Z,6.60
2023-02-08T16:02:43.151Z,6.27
2023-02-08T16:05:21.913Z,6.83
2023-02-08T16:07:52.842Z,6.57
2023-02-08T16:10:30.441Z,6.80
2023-02-08T16:13:02.242Z,6.80
2023-02-08T16:15:45.358Z,7.53
2023-02-08T16:18:42.031Z,8.40
2023-02-08T16:21:23.621Z,9.37
2023-02-08T16:23:56.547Z,8.70
2023-02-08T16:26:28.895Z,8.50
2023-02-08T16:29:00.111Z,7.40
2023-02-08T16:31:31.039Z,6.77
2023-02-08T16:34:05.537Z,8.43
2023-02-08T16:36:38.341Z,7.67
2023-02-08T16:39:46.974Z,6.70
2023-02-08T16:42:29.393Z,6.47
2023-02-08T16:45:14.402Z,6.83
2023-02-08T16:47:44.873Z,6.33
2023-02-08T16:50:15.561Z,6.57
2023-02-08T16:52:43.942Z,7.03
2023-02-08T16:55:20.139Z,6.57
2023-02-08T16:57:49.813Z,6.60
2023-02-08T17:00:22.295Z,6.30
2023-02-08T17:02:51.265Z,6.23
2023-02-08T17:05:21.768Z,6.13
2023-02-08T17:07:50.665Z,5.97
2023-02-08T17:10:26.060Z,6.53
2023-02-08T17:13:09.800Z,6.43
2023-02-08T17:15:44.913Z,6.17
2023-02-08T17:18:14.340Z,7.00
2023-02-08T17:20:43.096Z,6.43
2023-02-08T17:23:12.080Z,6.73
2023-02-08T17:25:41.856Z,8.13
2023-02-08T17:28:16.074Z,9.30
2023-02-08T17:30:45.363Z,9.27
2023-02-08T17:33:18.283Z,7.73
2023-02-08T17:35:48.495Z,8.13
2023-02-08T17:38:16.982Z,18.07
2023-02-08T17:40:46.784Z,19.13
2023-02-08T17:43:15.514Z,12.37
2023-02-08T17:45:45.439Z,8.57
2023-02-08T17:48:15.458Z,8.07
2023-02-08T17:50:48.002Z,7.47
2023-02-08T17:53:16.379Z,6.93
2023-02-08T17:55:46.955Z,9.07
2023-02-08T17:58:15.208Z,8.37
2023-02-08T18:00:43.353Z,8.17
2023-02-08T18:03:12.114Z,10.00
2023-02-08T18:05:40.259Z,7.90
2023-02-08T18:08:08.471Z,8.47
2023-02-08T18:10:36.655Z,9.60
2023-02-08T18:13:06.144Z,10.67
2023-02-08T18:15:35.851Z,10.87
2023-02-08T18:18:04.071Z,11.27
2023-02-08T18:20:32.231Z,9.73
2023-02-08T18:23:00.269Z,9.03
2023-02-08T18:25:28.421Z,9.00
2023-02-08T18:27:57.910Z,8.53
2023-02-08T18:30:28.172Z,7.37
2023-02-08T18:32:56.353Z,8.10
2023-02-08T18:35:24.809Z,8.70
2023-02-08T18:37:53.612Z,8.73
2023-02-08T18:40:22.186Z,8.13
2023-02-08T18:42:50.558Z,8.57
2023-02-08T18:45:18.649Z,8.10
2023-02-08T18:47:48.099Z,8.40
2023-02-08T18:50:16.533Z,8.67
2023-02-08T18:52:44.690Z,8.53
2023-02-08T18:55:12.762Z,8.13
2023-02-08T18:57:41.056Z,8.83
2023-02-08T19:00:10.495Z,8.23
2023-02-08T19:02:39.722Z,7.67
2023-02-08T19:05:09.863Z,8.27
2023-02-08T19:07:39.397Z,9.33
2023-02-08T19:10:08.716Z,7.67
2023-02-08T19:12:37.879Z,8.73
2023-02-08T19:15:06.730Z,9.37
2023-02-08T19:17:36.157Z,9.13
2023-02-08T19:20:04.585Z,8.60
2023-02-08T19:22:34.297Z,9.03
2023-02-08T19:25:02.438Z,7.93
2023-02-08T19:27:30.952Z,8.00
2023-02-08T19:29:59.262Z,9.40
2023-02-08T19:32:27.634Z,8.87
2023-02-08T19:34:55.965Z,9.30
2023-02-08T19:37:24.140Z,9.27
2023-02-08T19:39:53.655Z,9.47
2023-02-08T19:42:21.761Z,10.00
2023-02-08T19:44:49.843Z,9.40
2023-02-08T19:47:18.466Z,10.13
2023-02-08T19:49:46.662Z,14.93
2023-02-08T19:52:20.079Z,17.80
2023-02-08T19:54:48.461Z,14.07
2023-02-08T19:57:18.216Z,12.60
2023-02-08T19:59:47.907Z,10.97
2023-02-08T20:02:19.022Z,11.67
2023-02-08T20:04:47.412Z,11.47
2023-02-08T20:07:15.533Z,11.80
2023-02-08T20:09:43.684Z,12.00
2023-02-08T20:12:11.940Z,11.97
2023-02-08T20:14:41.528Z,11.17
2023-02-08T20:17:09.771Z,11.77
2023-02-08T20:19:52.272Z,10.50
2023-02-08T20:22:21.593Z,11.43
2023-02-08T20:24:56.213Z,11.10
2023-02-08T20:27:24.391Z,11.07
2023-02-08T20:29:56.731Z,11.40
2023-02-08T20:32:25.026Z,10.70
2023-02-08T20:34:59.513Z,10.93
2023-02-08T20:37:28.380Z,11.33
2023-02-08T20:39:56.505Z,10.37
2023-02-08T20:42:24.851Z,17.10
2023-02-08T20:44:54.685Z,13.27
2023-02-08T20:47:23.105Z,11.63
2023-02-08T20:49:51.414Z,11.53
2023-02-08T20:52:19.897Z,11.50
2023-02-08T20:54:47.959Z,11.13
2023-02-08T20:57:18.212Z,10.63
2023-02-08T20:59:47.086Z,11.53
2023-02-08T21:02:19.346Z,11.00
2023-02-08T21:04:50.146Z,11.30
2023-02-08T21:07:19.324Z,10.80
2023-02-08T21:09:47.583Z,10.57
2023-02-08T21:12:16.070Z,10.70
2023-02-08T21:14:45.230Z,10.17
2023-02-08T21:17:13.237Z,10.90
2023-02-08T21:19:42.724Z,11.17
2023-02-08T21:22:11.289Z,11.43
2023-02-08T21:24:39.337Z,10.70
2023-02-08T21:27:07.843Z,11.17
2023-02-08T21:29:35.916Z,10.77
2023-02-08T21:32:05.653Z,11.40
2023-02-08T21:34:33.949Z,11.23
2023-02-08T21:37:03.892Z,10.97
2023-02-08T21:39:32.672Z,10.87
2023-02-08T21:42:00.785Z,11.10
2023-02-08T21:44:44.848Z,10.50
2023-02-08T21:47:13.256Z,11.53
2023-02-08T21:49:58.800Z,11.43
2023-02-08T21:52:45.863Z,11.43
2023-02-08T21:55:13.867Z,11.73
2023-02-08T21:57:42.062Z,11.83
2023-02-08T22:00:11.318Z,10.40
2023-02-08T22:02:39.304Z,10.93
2023-02-08T22:05:24.986Z,11.07
2023-02-08T22:07:59.324Z,10.83
2023-02-08T22:10:29.601Z,11.33
2023-02-08T22:12:58.376Z,11.87
2023-02-08T22:15:29.642Z,11.63
2023-02-08T22:17:59.571Z,12.30
2023-02-08T22:20:28.649Z,10.50
2023-02-08T22:22:59.514Z,11.30
2023-02-08T22:25:27.857Z,11.77
2023-02-08T22:27:56.845Z,11.77
2023-02-08T22:30:25.831Z,11.73
2023-02-08T22:32:54.025Z,11.93
2023-02-08T22:35:22.534Z,12.13
2023-02-08T22:37:53.802Z,11.93
2023-02-08T22:40:23.787Z,14.23
2023-02-08T22:42:51.955Z,12.00
2023-02-08T22:45:20.914Z,12.37
2023-02-08T22:47:49.123Z,12.07
2023-02-08T22:50:17.383Z,12.03
2023-02-08T22:52:45.362Z,11.70
2023-02-08T22:55:14.123Z,12.00
2023-02-08T22:57:46.742Z,12.07
2023-02-08T23:00:16.528Z,12.33
2023-02-08T23:02:45.134Z,12.53
2023-02-08T23:05:14.016Z,12.37
2023-02-08T23:07:42.126Z,12.57
2023-02-08T23:10:11.760Z,12.73
2023-02-08T23:12:40.079Z,12.00
2023-02-08T23:15:12.564Z,12.30
2023-02-08T23:17:40.610Z,12.63
2023-02-08T23:20:09.885Z,11.73
2023-02-08T23:22:38.715Z,12.47
2023-02-08T23:25:07.709Z,12.13
2023-02-08T23:27:35.957Z,12.83
2023-02-08T23:30:09.644Z,12.07
2023-02-08T23:32:39.436Z,12.27
2023-02-08T23:35:09.561Z,12.17
2023-02-08T23:37:38.014Z,12.73
2023-02-08T23:40:06.843Z,12.70
2023-02-08T23:42:34.983Z,12.57
2023-02-08T23:45:03.394Z,11.83
2023-02-08T23:47:32.103Z,12.00
2023-02-08T23:50:01.896Z,13.33
2023-02-08T23:52:29.952Z,12.40
2023-02-08T23:54:59.216Z,11.87
2023-02-08T23:57:28.298Z,12.17
2023-02-08T23:59:56.345Z,12.13
